Time;durP1;ratioP1;P1;durP2;ratioP2;P2;SDS_P1;SDS_P2;PMS_P1;PMS_P2;Temp;Humidity;BMP_temperature;BMP_pressure;BME280_temperature;BME280_humidity;BME280_pressure;Samples;Min_cycle;Max_cycle;Signal;HPM_P1;HPM_P2
2023/05/01 00:02:10;;;;;;;4.37;3.07;;;;;;;15.49;52.03;94601.25;5130693;27;20629;-50
2023/05/01 00:04:38;;;;;;;2.70;2.50;;;;;;;15.47;52.19;94605.78;5131041;27;20553;-51
2023/05/01 00:07:05;;;;;;;4.10;3.40;;;;;;;15.45;52.45;94600.00;5130503;27;20196;-49
2023/05/01 00:09:32;;;;;;;3.23;2.93;;;;;;;15.42;52.41;94600.34;5130756;27;20192;-51
2023/05/01 00:11:59;;;;;;;2.90;2.70;;;;;;;15.38;52.50;94592.16;5130617;27;20231;-52
2023/05/01 00:14:25;;;;;;;3.67;3.37;;;;;;;15.37;52.60;94600.88;5130434;27;20203;-49
2023/05/01 00:16:52;;;;;;;4.23;3.50;;;;;;;15.35;52.67;94597.63;5130847;27;20220;-49
2023/05/01 00:19:19;;;;;;;3.80;3.00;;;;;;;15.34;52.62;94602.97;5130495;27;20584;-48
2023/05/01 00:21:47;;;;;;;3.93;3.33;;;;;;;15.32;52.71;94600.53;5130535;27;20184;-49
2023/05/01 00:24:15;;;;;;;3.50;3.20;;;;;;;15.28;52.90;94596.69;5130336;27;20573;-49
2023/05/01 00:26:42;;;;;;;4.43;3.10;;;;;;;15.23;52.82;94591.25;5130043;27;20196;-49
2023/05/01 00:29:08;;;;;;;3.30;3.00;;;;;;;15.24;53.08;94603.16;5130673;27;20192;-49
2023/05/01 00:31:35;;;;;;;3.63;2.97;;;;;;;15.21;52.99;94593.22;5130522;27;20201;-49
2023/05/01 00:34:03;;;;;;;3.23;2.93;;;;;;;15.17;53.20;94603.03;5130348;27;20192;-49
2023/05/01 00:36:31;;;;;;;3.10;2.80;;;;;;;15.13;52.97;94594.03;5129980;27;20575;-49
2023/05/01 00:38:59;;;;;;;3.53;3.23;;;;;;;15.06;53.10;94593.09;5131720;27;20739;-48
2023/05/01 00:41:26;;;;;;;3.50;3.20;;;;;;;15.15;53.31;94604.16;5130740;27;20713;-48
2023/05/01 00:43:53;;;;;;;3.17;2.97;;;;;;;15.13;53.25;94617.22;5130221;27;20673;-51
2023/05/01 00:46:20;;;;;;;3.13;2.93;;;;;;;15.12;53.22;94617.41;5129883;27;20215;-50
2023/05/01 00:48:47;;;;;;;3.60;3.30;;;;;;;15.10;53.39;94616.75;5129928;27;20184;-50
2023/05/01 00:51:14;;;;;;;3.40;3.10;;;;;;;15.04;53.21;94613.88;5130463;27;20615;-50
2023/05/01 00:53:41;;;;;;;3.90;3.50;;;;;;;15.04;53.34;94619.03;5130510;27;20188;-50
2023/05/01 00:56:10;;;;;;;3.77;3.47;;;;;;;15.04;53.42;94625.94;5129791;27;20256;-50
2023/05/01 00:58:38;;;;;;;4.37;3.33;;;;;;;14.93;53.58;94614.22;5130097;27;20665;-48
2023/05/01 01:01:06;;;;;;;4.17;3.50;;;;;;;15.01;53.82;94628.84;5130348;28;20184;-49
2023/05/01 01:03:32;;;;;;;3.33;3.03;;;;;;;14.98;53.83;94631.75;5130486;28;20184;-50
2023/05/01 01:06:07;;;;;;;4.67;3.17;;;;;;;14.97;53.78;94633.53;5129882;28;20196;-50
2023/05/01 01:08:40;;;;;;;3.37;3.03;;;;;;;14.95;54.23;94632.91;5129935;28;20227;-50
2023/05/01 01:11:18;;;;;;;3.37;3.17;;;;;;;14.89;54.22;94630.97;5130255;28;20184;-49
2023/05/01 01:13:52;;;;;;;3.20;2.77;;;;;;;14.89;54.23;94633.53;5129886;28;20230;-50
2023/05/01 01:16:23;;;;;;;3.50;3.20;;;;;;;14.06;54.09;94507.78;5129888;28;20188;-49
2023/05/01 01:18:56;;;;;;;3.27;3.00;;;;;;;14.84;54.28;94635.03;5130028;28;20208;-50
2023/05/01 01:21:28;;;;;;;3.53;3.23;;;;;;;14.83;54.24;94633.41;5129589;28;20290;-48
2023/05/01 01:24:24;;;;;;;4.73;3.57;;;;;;;14.80;54.36;94639.69;5132651;27;20488;-49
2023/05/01 01:27:39;;;;;;;3.50;3.20;;;;;;;14.76;54.43;94636.63;5133582;27;20767;-50
2023/05/01 01:30:43;;;;;;;3.47;3.17;;;;;;;14.72;54.69;94637.97;5133664;27;20196;-50
2023/05/01 01:33:35;;;;;;;3.13;2.93;;;;;;;14.69;54.68;94635.72;5110492;28;20572;-49
2023/05/01 01:36:07;;;;;;;4.40;3.33;;;;;;;14.65;54.90;94638.78;5111031;28;20622;-50
2023/05/01 01:38:40;;;;;;;4.37;3.13;;;;;;;14.65;54.82;94643.91;5110263;28;20220;-50
2023/05/01 01:41:12;;;;;;;4.33;3.20;;;;;;;14.65;54.80;94644.72;5110808;28;20661;-48
2023/05/01 01:43:42;;;;;;;4.57;3.20;;;;;;;14.61;55.01;94637.50;5110500;28;20189;-50
2023/05/01 01:46:11;;;;;;;3.97;3.57;;;;;;;14.60;54.97;94644.41;5110761;28;20238;-49
2023/05/01 01:48:43;;;;;;;3.40;3.20;;;;;;;14.60;55.17;94641.84;5110494;28;20189;-49
2023/05/01 01:51:14;;;;;;;4.17;3.00;;;;;;;14.57;54.88;94637.00;5110649;28;20605;-48
2023/05/01 01:53:45;;;;;;;3.53;3.20;;;;;;;14.53;55.08;94631.38;5110358;28;20240;-48
2023/05/01 01:56:15;;;;;;;3.00;2.80;;;;;;;14.54;55.26;94635.56;5110492;28;20277;-48
2023/05/01 01:58:44;;;;;;;7.90;3.40;;;;;;;14.53;55.41;94635.72;5110196;28;21065;-48
2023/05/01 02:01:13;;;;;;;3.40;3.07;;;;;;;14.52;55.19;94636.69;5110433;28;20654;-49
2023/05/01 02:03:43;;;;;;;3.53;3.23;;;;;;;14.50;55.47;94638.63;5109980;28;20185;-49
2023/05/01 02:06:13;;;;;;;3.63;3.33;;;;;;;14.49;55.42;94637.81;5110157;28;20550;-48
2023/05/01 02:08:42;;;;;;;3.00;2.80;;;;;;;14.47;55.41;94632.00;5109815;28;20185;-49
2023/05/01 02:11:11;;;;;;;3.33;3.03;;;;;;;14.44;55.59;94628.97;5131859;27;20188;-52
2023/05/01 02:13:39;;;;;;;3.50;3.20;;;;;;;14.43;55.43;94624.78;5132707;27;20262;-48
2023/05/01 02:16:07;;;;;;;3.30;3.00;;;;;;;14.40;55.63;94625.09;5132963;27;20279;-49
2023/05/01 02:18:36;;;;;;;4.07;3.40;;;;;;;14.39;55.65;94626.88;5132732;27;20325;-54
2023/05/01 02:21:05;;;;;;;3.73;3.43;;;;;;;14.38;55.78;94625.28;5134621;27;20571;-49
2023/05/01 02:23:32;;;;;;;3.43;3.13;;;;;;;14.34;55.68;94615.47;5133252;27;20228;-49
2023/05/01 02:26:02;;;;;;;3.70;3.23;;;;;;;14.36;56.02;94621.25;5132916;27;20241;-49
2023/05/01 02:28:30;;;;;;;3.20;2.90;;;;;;;14.16;56.06;94597.63;5132435;27;20192;-49
2023/05/01 02:30:57;;;;;;;3.67;3.37;;;;;;;14.31;55.83;94624.31;5132998;27;20299;-49
2023/05/01 02:33:24;;;;;;;3.53;3.23;;;;;;;14.29;56.07;94621.91;5132397;27;20192;-49
2023/05/01 02:35:51;;;;;;;3.83;3.53;;;;;;;14.30;55.96;94630.41;5132634;27;20661;-49
2023/05/01 02:38:20;;;;;;;3.47;3.17;;;;;;;14.26;56.19;94622.22;5132484;27;20230;-49
2023/05/01 02:40:52;;;;;;;3.50;3.20;;;;;;;14.27;56.11;94628.16;5132812;27;20223;-49
2023/05/01 02:43:21;;;;;;;4.90;3.47;;;;;;;14.27;56.38;94633.31;5132686;27;20239;-49
2023/05/01 02:45:49;;;;;;;3.43;3.13;;;;;;;14.20;56.38;94630.56;5132424;27;20673;-49
2023/05/01 02:48:20;;;;;;;3.43;3.13;;;;;;;14.23;56.40;94632.03;5132212;27;20184;-49
2023/05/01 02:50:48;;;;;;;4.37;3.33;;;;;;;14.22;56.40;94635.56;5132552;27;20184;-49
2023/05/01 02:53:17;;;;;;;4.43;3.70;;;;;;;14.14;56.40;94625.28;5131975;27;20223;-49
2023/05/01 02:55:45;;;;;;;4.23;3.33;;;;;;;14.21;56.33;94639.09;5132523;27;20192;-50
2023/05/01 02:58:16;;;;;;;3.93;3.37;;;;;;;14.19;56.34;94644.41;5132086;27;20215;-48
2023/05/01 03:00:43;;;;;;;3.67;3.37;;;;;;;14.17;56.54;94637.81;5132479;27;20187;-50
2023/05/01 03:03:10;;;;;;;3.40;3.10;;;;;;;14.12;56.45;94635.72;5132451;27;20556;-49
2023/05/01 03:05:37;;;;;;;3.87;3.57;;;;;;;14.13;56.62;94639.09;5132196;27;20184;-49
2023/05/01 03:08:05;;;;;;;4.17;3.33;;;;;;;14.10;56.76;94634.28;5132183;27;20208;-48
2023/05/01 03:10:31;;;;;;;3.40;3.03;;;;;;;14.10;56.83;94636.84;5131795;27;20184;-48
2023/05/01 03:13:00;;;;;;;3.73;3.17;;;;;;;14.09;56.89;94637.81;5132127;27;20221;-48
2023/05/01 03:15:27;;;;;;;3.80;3.50;;;;;;;14.06;56.98;94634.59;5131677;27;20199;-49
2023/05/01 03:17:54;;;;;;;3.60;3.30;;;;;;;13.59;57.01;94559.84;5131961;27;20207;-48
2023/05/01 03:20:20;;;;;;;4.63;3.77;;;;;;;14.04;56.77;94639.09;5132121;27;20185;-48
2023/05/01 03:22:47;;;;;;;3.70;3.40;;;;;;;14.03;57.10;94639.25;5133113;27;20195;-49
2023/05/01 03:25:14;;;;;;;4.13;3.73;;;;;;;14.02;57.08;94641.00;5131718;27;20220;-48
2023/05/01 03:27:41;;;;;;;4.20;3.80;;;;;;;14.01;56.96;94641.97;5131784;27;20188;-48
2023/05/01 03:30:10;;;;;;;4.53;3.83;;;;;;;13.98;57.22;94629.44;5132023;27;20185;-48
2023/05/01 03:32:37;;;;;;;3.83;3.53;;;;;;;13.88;57.19;94615.16;5132078;27;20211;-50
2023/05/01 03:35:04;;;;;;;3.60;3.30;;;;;;;14.03;57.28;94646.97;5131882;27;20661;-49
2023/05/01 03:37:32;;;;;;;4.00;3.57;;;;;;;14.02;57.22;94651.28;5131824;27;20242;-48
2023/05/01 03:39:59;;;;;;;3.73;3.40;;;;;;;14.03;57.49;94659.81;5131430;27;20241;-50
2023/05/01 03:42:26;;;;;;;3.93;3.60;;;;;;;14.02;57.35;94650.50;5131428;27;20287;-48
2023/05/01 03:44:52;;;;;;;5.10;3.33;;;;;;;14.04;57.12;94662.25;5131040;27;20200;-48
2023/05/01 03:47:21;;;;;;;4.30;3.93;;;;;;;14.05;57.45;94666.41;5130670;27;20196;-50
2023/05/01 03:49:48;;;;;;;4.00;3.70;;;;;;;14.07;57.36;94668.81;5131448;27;20185;-48
2023/05/01 03:52:15;;;;;;;4.17;3.77;;;;;;;14.09;57.42;94671.25;5131488;27;20612;-50
2023/05/01 03:54:43;;;;;;;4.00;3.60;;;;;;;14.14;57.19;94690.38;5131341;27;20204;-50
2023/05/01 03:57:10;;;;;;;4.73;4.23;;;;;;;14.14;57.28;94676.72;5131133;27;20261;-52
2023/05/01 03:59:36;;;;;;;4.57;4.17;;;;;;;14.20;57.68;94681.19;5132281;27;20228;-49
2023/05/01 04:02:03;;;;;;;4.27;3.87;;;;;;;14.25;57.40;94689.28;5130981;27;20196;-48
2023/05/01 04:04:32;;;;;;;4.97;4.47;;;;;;;14.28;57.35;94683.78;5131026;27;20249;-49
2023/05/01 04:06:58;;;;;;;5.60;4.90;;;;;;;14.28;57.54;94678.63;5130646;27;20185;-49
2023/05/01 04:09:26;;;;;;;6.83;4.17;;;;;;;14.21;57.48;94664.84;5130814;27;20188;-48
2023/05/01 04:11:52;;;;;;;5.40;4.73;;;;;;;14.37;57.58;94677.66;5131037;27;20184;-49
2023/05/01 04:14:19;;;;;;;4.53;4.07;;;;;;;14.47;57.57;94686.06;5130891;27;20189;-49
2023/05/01 04:16:46;;;;;;;4.97;4.17;;;;;;;14.49;57.55;94678.19;5131021;27;20252;-49
2023/05/01 04:19:13;;;;;;;4.67;4.27;;;;;;;14.60;57.47;94682.22;5130302;27;20219;-49
2023/05/01 04:21:41;;;;;;;7.97;4.57;;;;;;;14.66;57.27;94686.69;5131185;27;20188;-50
2023/05/01 04:24:08;;;;;;;9.80;3.60;;;;;;;14.61;57.29;94674.31;5130261;27;20224;-50
2023/05/01 04:26:35;;;;;;;4.47;4.07;;;;;;;14.80;57.28;94689.41;5130402;27;20188;-49
2023/05/01 04:29:02;;;;;;;4.67;4.27;;;;;;;14.87;57.35;94692.13;5130331;27;20196;-51
2023/05/01 04:31:28;;;;;;;4.40;3.97;;;;;;;14.95;57.00;94692.13;5130524;27;20195;-49
2023/05/01 04:33:55;;;;;;;5.90;4.10;;;;;;;15.03;57.01;94688.75;5130041;27;20201;-50
2023/05/01 04:36:22;;;;;;;5.50;4.50;;;;;;;15.13;57.00;94689.34;5130357;27;20189;-49
2023/05/01 04:38:51;;;;;;;4.83;4.40;;;;;;;15.32;57.09;94693.31;5129884;27;20296;-51
2023/05/01 04:41:18;;;;;;;6.20;4.77;;;;;;;15.66;56.30;94687.88;5130643;27;20271;-50
2023/05/01 04:43:45;;;;;;;5.93;4.30;;;;;;;16.13;55.64;94689.53;5130672;27;20196;-49
2023/05/01 04:46:12;;;;;;;4.40;3.60;;;;;;;16.72;55.50;94699.25;5130432;27;20610;-49
2023/05/01 04:48:38;;;;;;;4.47;4.07;;;;;;;17.36;55.13;94693.59;5130145;27;20199;-50
2023/05/01 04:51:05;;;;;;;4.50;4.10;;;;;;;18.08;54.33;94690.31;5129897;27;20248;-49
2023/05/01 04:53:32;;;;;;;3.90;3.60;;;;;;;18.86;53.48;94697.19;5130342;27;20257;-50
2023/05/01 04:56:01;;;;;;;4.73;3.70;;;;;;;19.66;52.55;94693.28;5130108;27;20191;-51
2023/05/01 04:58:27;;;;;;;7.97;3.90;;;;;;;20.46;51.67;94677.88;5129455;27;20235;-50
2023/05/01 05:00:54;;;;;;;6.43;3.93;;;;;;;21.44;50.48;94698.84;5130176;28;20184;-50
2023/05/01 05:03:21;;;;;;;5.33;3.87;;;;;;;22.32;49.59;94704.28;5129837;28;20195;-50
2023/05/01 05:05:48;;;;;;;5.83;3.60;;;;;;;23.16;48.13;94704.91;5129918;28;20557;-49
2023/05/01 05:08:14;;;;;;;4.97;3.67;;;;;;;24.07;47.19;94709.34;5130061;28;20192;-49
2023/05/01 05:10:41;;;;;;;5.55;3.75;;;;;;;24.94;46.33;94712.31;5129886;28;20188;-49
2023/05/01 05:13:11;;;;;;;3.40;3.10;;;;;;;25.83;45.36;94719.25;5129937;28;20198;-50
2023/05/01 05:15:38;;;;;;;4.05;3.20;;;;;;;26.62;44.31;94711.56;5129850;28;20184;-50
2023/05/01 05:18:05;;;;;;;3.25;2.92;;;;;;;27.47;42.99;94724.44;5129559;28;20649;-50
2023/05/01 05:20:32;;;;;;;3.28;3.03;;;;;;;28.26;42.17;94731.97;5128307;28;20215;-50
2023/05/01 05:22:59;;;;;;;4.50;3.00;;;;;;;29.03;41.24;94739.84;5129849;28;20188;-49
2023/05/01 05:25:25;;;;;;;4.97;3.17;;;;;;;29.59;40.29;94717.31;5130052;28;20189;-49
2023/05/01 05:27:53;;;;;;;4.38;3.30;;;;;;;30.42;39.91;94740.34;5129873;28;20192;-51
2023/05/01 05:30:21;;;;;;;3.17;2.88;;;;;;;31.06;38.93;94741.75;5129840;28;20215;-51
2023/05/01 05:32:50;;;;;;;4.40;3.13;;;;;;;31.68;38.27;94732.69;5129793;27;20660;-50
2023/05/01 05:35:17;;;;;;;4.05;3.05;;;;;;;32.40;37.53;94749.91;5130869;28;20196;-49
2023/05/01 05:37:44;;;;;;;3.58;2.97;;;;;;;33.01;37.01;94750.59;5131609;28;20189;-51
2023/05/01 05:40:12;;;;;;;4.47;3.40;;;;;;;33.59;36.36;94748.75;5130215;28;20307;-50
2023/05/01 05:42:39;;;;;;;5.07;3.42;;;;;;;34.19;35.92;94756.34;5129384;28;20194;-51
2023/05/01 05:45:07;;;;;;;2.95;2.63;;;;;;;34.76;35.35;94759.06;5129644;27;20184;-49
2023/05/01 05:47:35;;;;;;;5.75;2.88;;;;;;;35.31;34.81;94761.94;5129701;28;20565;-49
2023/05/01 05:50:02;;;;;;;2.83;2.63;;;;;;;35.82;34.26;94761.84;5129891;28;20736;-51
2023/05/01 05:52:29;;;;;;;3.08;2.85;;;;;;;36.29;33.75;94756.44;5129678;27;20188;-51
2023/05/01 05:54:56;;;;;;;3.60;3.28;;;;;;;36.78;33.28;94763.63;5130032;27;20187;-51
2023/05/01 05:57:23;;;;;;;4.22;2.85;;;;;;;37.23;32.84;94765.56;5130066;28;20204;-52
2023/05/01 05:59:50;;;;;;;3.30;3.00;;;;;;;37.65;32.35;94766.91;5129824;28;20235;-52
2023/05/01 06:02:17;;;;;;;3.45;3.15;;;;;;;38.06;32.12;94758.63;5129385;28;20199;-50
2023/05/01 06:04:45;;;;;;;3.33;2.90;;;;;;;38.45;31.60;94765.03;5129348;28;20176;-51
2023/05/01 06:07:12;;;;;;;3.47;3.17;;;;;;;38.84;31.51;94772.16;5129691;28;20196;-51
2023/05/01 06:09:39;;;;;;;3.25;2.95;;;;;;;39.24;31.22;94771.19;5131388;27;20197;-49
2023/05/01 06:12:06;;;;;;;3.53;3.10;;;;;;;39.60;30.90;94768.91;5133161;27;20214;-52
2023/05/01 06:14:32;;;;;;;3.05;2.75;;;;;;;39.98;30.52;94778.09;5132565;27;20188;-51
2023/05/01 06:17:00;;;;;;;4.72;2.90;;;;;;;40.31;30.13;94773.69;5133276;27;20199;-52
2023/05/01 06:19:27;;;;;;;2.92;2.72;;;;;;;40.61;29.85;94771.78;5132527;27;20572;-50
2023/05/01 06:21:55;;;;;;;4.05;2.70;;;;;;;40.90;29.70;94772.84;5133007;27;20188;-50
2023/05/01 06:24:22;;;;;;;3.70;3.40;;;;;;;41.21;29.43;94780.47;5132011;27;20227;-50
2023/05/01 06:26:49;;;;;;;2.80;2.60;;;;;;;41.50;29.35;94774.22;5132854;27;20184;-52
2023/05/01 06:29:15;;;;;;;3.60;2.92;;;;;;;41.77;29.23;94778.16;5132577;27;20192;-53
2023/05/01 06:31:42;;;;;;;3.72;2.70;;;;;;;41.76;28.92;94732.84;5132822;27;20260;-51
2023/05/01 06:34:09;;;;;;;4.10;2.78;;;;;;;42.31;28.56;94778.00;5132593;27;20562;-51
2023/05/01 06:36:36;;;;;;;3.40;2.95;;;;;;;42.57;28.41;94779.53;5132705;27;20721;-52
2023/05/01 06:39:04;;;;;;;3.15;2.92;;;;;;;42.80;28.19;94779.84;5132662;27;20230;-52
2023/05/01 06:41:31;;;;;;;2.70;2.50;;;;;;;43.00;27.68;94776.16;5135735;27;20661;-51
2023/05/01 06:43:58;;;;;;;4.68;2.63;;;;;;;43.20;28.13;94781.75;5132498;27;20286;-51
2023/05/01 06:46:25;;;;;;;3.10;2.80;;;;;;;43.38;27.95;94782.22;5132647;27;20626;-50
2023/05/01 06:48:52;;;;;;;3.10;2.80;;;;;;;43.55;27.81;94784.63;5132578;27;20176;-51
2023/05/01 06:51:18;;;;;;;6.13;2.72;;;;;;;43.69;27.68;94781.50;5132126;27;20176;-50
2023/05/01 06:53:45;;;;;;;2.60;2.40;;;;;;;43.72;27.60;94778.88;5132388;27;20287;-54
2023/05/01 06:56:13;;;;;;;2.80;2.60;;;;;;;43.95;27.39;94789.09;5132080;27;20228;-52
2023/05/01 06:58:40;;;;;;;3.10;2.75;;;;;;;44.09;27.16;94784.06;5131735;27;20191;-54
2023/05/01 07:01:07;;;;;;;3.30;2.67;;;;;;;44.24;27.37;94791.34;5131604;27;20192;-51
2023/05/01 07:03:34;;;;;;;3.00;2.75;;;;;;;44.41;27.21;94795.59;5131984;27;20187;-52
2023/05/01 07:06:01;;;;;;;2.53;2.42;;;;;;;44.54;26.85;94788.94;5131851;27;20204;-53
2023/05/01 07:08:28;;;;;;;3.78;2.97;;;;;;;44.70;26.43;94790.84;5132010;27;20587;-52
2023/05/01 07:10:54;;;;;;;3.08;2.63;;;;;;;44.83;26.33;94792.28;5131811;27;20606;-52
2023/05/01 07:13:22;;;;;;;3.97;2.85;;;;;;;44.95;26.31;94780.53;5131251;27;20187;-50
2023/05/01 07:15:49;;;;;;;2.88;2.63;;;;;;;45.08;26.23;94792.78;5132032;27;20572;-52
2023/05/01 07:18:17;;;;;;;3.83;2.78;;;;;;;45.17;26.54;94793.38;5131964;27;20187;-51
2023/05/01 07:20:43;;;;;;;3.47;3.17;;;;;;;45.24;26.64;94798.91;5130468;27;20715;-51
2023/05/01 07:23:10;;;;;;;2.35;2.22;;;;;;;45.31;26.45;94795.56;5131106;27;20188;-54
2023/05/01 07:25:37;;;;;;;2.78;2.58;;;;;;;45.32;25.97;94793.63;5131402;27;20210;-52
2023/05/01 07:28:06;;;;;;;3.17;2.88;;;;;;;45.39;26.16;94799.97;5131144;27;20188;-52
2023/05/01 07:30:36;;;;;;;3.70;3.08;;;;;;;45.43;26.41;94795.44;5131187;27;20628;-52
2023/05/01 07:33:04;;;;;;;3.15;2.85;;;;;;;45.41;26.09;94786.13;5131131;27;20295;-53
2023/05/01 07:35:31;;;;;;;5.45;3.00;;;;;;;45.48;26.17;94794.34;5131285;27;20291;-51
2023/05/01 07:37:58;;;;;;;2.90;2.70;;;;;;;45.49;25.69;94791.28;5130977;27;20672;-52
2023/05/01 07:40:25;;;;;;;3.92;3.10;;;;;;;45.50;25.55;94798.25;5131091;27;20211;-52
2023/05/01 07:42:52;;;;;;;3.53;2.97;;;;;;;45.49;25.64;94791.28;5130535;27;20188;-51
2023/05/01 07:45:18;;;;;;;3.15;2.95;;;;;;;45.48;26.05;94797.06;5131630;27;20192;-50
2023/05/01 07:47:47;;;;;;;3.30;2.80;;;;;;;45.43;25.60;94792.72;5131401;27;20594;-52
2023/05/01 07:50:13;;;;;;;3.35;3.05;;;;;;;45.39;26.02;94799.19;5131113;27;20188;-50
2023/05/01 07:52:40;;;;;;;3.90;3.10;;;;;;;45.30;25.52;94794.78;5130793;27;20188;-50
2023/05/01 07:55:08;;;;;;;4.20;2.83;;;;;;;45.22;25.92;94803.09;5130538;27;20233;-51
2023/05/01 07:57:35;;;;;;;3.17;2.88;;;;;;;45.11;26.05;94797.47;5130867;27;20725;-51
2023/05/01 08:00:03;;;;;;;4.32;2.90;;;;;;;45.02;26.04;94792.31;5130382;27;20211;-51
2023/05/01 08:02:30;;;;;;;3.28;2.97;;;;;;;44.91;25.73;94798.59;5130667;27;20195;-51
2023/05/01 08:04:58;;;;;;;3.22;2.92;;;;;;;44.81;26.00;94797.25;5130404;27;20196;-51
2023/05/01 08:07:25;;;;;;;3.55;3.25;;;;;;;44.69;25.46;94792.75;5130385;27;20192;-51
2023/05/01 08:09:52;;;;;;;6.07;3.03;;;;;;;44.55;25.63;94789.72;5128974;27;20548;-49
2023/05/01 08:12:18;;;;;;;3.63;2.88;;;;;;;44.40;25.65;94788.63;5131329;27;20180;-51
2023/05/01 08:14:45;;;;;;;3.90;3.08;;;;;;;44.24;26.12;94795.97;5130310;27;20199;-51
2023/05/01 08:17:12;;;;;;;2.80;2.60;;;;;;;44.10;26.31;94792.91;5130795;27;20195;-53
2023/05/01 08:19:39;;;;;;;3.35;2.85;;;;;;;43.93;25.72;94792.16;5129906;27;20588;-51
2023/05/01 08:22:07;;;;;;;5.78;2.70;;;;;;;43.82;26.31;94801.84;5130638;27;20194;-51
2023/05/01 08:24:34;;;;;;;3.10;2.80;;;;;;;43.65;26.16;94794.88;5129523;27;20226;-51
2023/05/01 08:27:01;;;;;;;2.72;2.47;;;;;;;43.49;25.88;94781.41;5129712;28;20190;-51
2023/05/01 08:29:28;;;;;;;2.80;2.60;;;;;;;43.28;26.37;94788.88;5129842;27;20188;-51
2023/05/01 08:31:56;;;;;;;3.45;2.92;;;;;;;43.06;26.00;94787.53;5130007;27;20304;-52
2023/05/01 08:34:23;;;;;;;3.40;2.70;;;;;;;42.86;26.34;94789.25;5130063;28;20184;-51
2023/05/01 08:36:50;;;;;;;3.00;2.67;;;;;;;42.68;26.53;94790.63;5129721;28;20175;-52
2023/05/01 08:39:18;;;;;;;3.28;2.47;;;;;;;42.45;26.62;94793.03;5132861;27;20205;-52
2023/05/01 08:41:47;;;;;;;2.97;2.53;;;;;;;42.22;26.80;94785.41;5129210;28;20188;-50
2023/05/01 08:44:15;;;;;;;3.30;2.47;;;;;;;41.92;26.74;94784.81;5130751;28;20219;-52
2023/05/01 08:46:47;;;;;;;2.85;2.65;;;;;;;41.61;26.74;94785.31;5129432;28;20192;-52
2023/05/01 08:49:16;;;;;;;6.40;2.80;;;;;;;41.29;27.14;94773.47;5129362;28;20230;-51
2023/05/01 08:51:45;;;;;;;2.42;2.22;;;;;;;41.03;26.87;94782.53;5128807;28;20199;-52
2023/05/01 08:54:13;;;;;;;3.03;2.60;;;;;;;40.74;26.96;94775.31;5129717;28;20188;-52
2023/05/01 08:56:44;;;;;;;4.05;2.90;;;;;;;40.50;26.70;94777.81;5129259;28;20233;-51
2023/05/01 08:59:11;;;;;;;2.50;2.33;;;;;;;40.21;27.09;94762.56;5128970;28;20595;-52
2023/05/01 09:01:40;;;;;;;2.88;2.35;;;;;;;39.92;27.25;94760.63;5128896;28;20219;-51
2023/05/01 09:04:08;;;;;;;2.60;2.40;;;;;;;39.69;27.32;94768.13;5128957;28;20192;-50
2023/05/01 09:06:36;;;;;;;2.78;2.58;;;;;;;39.29;27.31;94745.03;5128672;27;20245;-52
2023/05/01 09:09:03;;;;;;;2.80;2.45;;;;;;;39.20;27.40;94770.22;5128615;28;20188;-50
2023/05/01 09:11:30;;;;;;;2.67;2.47;;;;;;;38.92;27.36;94769.81;5128684;28;20192;-52
2023/05/01 09:14:00;;;;;;;4.22;2.88;;;;;;;38.31;27.32;94701.03;5129053;28;20188;-52
2023/05/01 09:16:27;;;;;;;3.00;2.70;;;;;;;38.36;27.34;94754.31;5128974;28;20191;-52
2023/05/01 09:18:58;;;;;;;3.20;2.90;;;;;;;38.10;27.46;94764.91;5128827;28;20196;-49
2023/05/01 09:21:30;;;;;;;2.55;2.08;;;;;;;37.82;27.53;94758.19;5128705;28;20216;-50
2023/05/01 09:23:58;;;;;;;2.72;2.30;;;;;;;37.58;27.76;94767.38;5087193;28;1143896;-50
2023/05/01 09:26:27;;;;;;;2.42;2.22;;;;;;;37.21;27.64;94746.41;5129575;28;20192;-51
2023/05/01 09:28:56;;;;;;;2.67;2.47;;;;;;;37.07;27.71;94768.59;5129660;27;20207;-51
2023/05/01 09:31:27;;;;;;;2.67;2.30;;;;;;;36.84;27.52;94769.66;5128159;28;20232;-51
2023/05/01 09:33:56;;;;;;;4.53;2.40;;;;;;;36.62;27.61;94778.41;5129382;28;20283;-51
2023/05/01 09:36:27;;;;;;;2.30;2.10;;;;;;;36.39;27.85;94769.53;5129429;28;20196;-52
2023/05/01 09:38:54;;;;;;;2.78;2.58;;;;;;;36.12;27.96;94759.72;5129695;28;20639;-50
2023/05/01 09:41:23;;;;;;;2.40;2.20;;;;;;;35.87;27.74;94768.94;5130182;28;20238;-51
2023/05/01 09:43:51;;;;;;;3.53;2.28;;;;;;;35.61;27.89;94766.75;5130150;27;20320;-50
2023/05/01 09:46:18;;;;;;;3.88;2.03;;;;;;;35.35;28.03;94768.25;5133361;27;20188;-51
2023/05/01 09:48:58;;;;;;;2.70;2.50;;;;;;;34.98;28.01;94772.59;5133048;27;20189;-51
2023/05/01 09:51:27;;;;;;;3.00;2.00;;;;;;;34.58;28.14;94761.44;5133515;27;20192;-50
2023/05/01 09:53:57;;;;;;;3.15;2.58;;;;;;;34.37;28.26;94760.91;5133058;27;20185;-49
2023/05/01 09:56:26;;;;;;;2.67;2.45;;;;;;;34.07;28.54;94758.63;5133628;27;20184;-51
2023/05/01 09:58:54;;;;;;;1.90;1.80;;;;;;;33.76;28.49;94750.97;5133277;27;20234;-53
2023/05/01 10:01:38;;;;;;;2.38;2.00;;;;;;;33.30;28.74;94732.88;5133190;27;20216;-50
2023/05/01 10:04:07;;;;;;;3.00;2.17;;;;;;;33.20;28.83;94747.00;5131733;27;20642;-51
2023/05/01 10:06:35;;;;;;;3.08;1.77;;;;;;;33.07;28.80;94750.28;5133334;27;20185;-51
2023/05/01 10:09:05;;;;;;;2.63;2.03;;;;;;;32.89;28.85;94745.63;5132838;27;20580;-50
2023/05/01 10:11:47;;;;;;;2.88;2.05;;;;;;;32.73;29.03;94747.59;5133350;27;20189;-51
2023/05/01 10:14:15;;;;;;;2.60;2.35;;;;;;;32.60;28.99;94746.38;5132582;27;20614;-50
2023/05/01 10:16:42;;;;;;;2.22;2.03;;;;;;;32.34;29.28;94721.88;5132933;27;20252;-50
2023/05/01 10:19:11;;;;;;;2.55;2.20;;;;;;;32.33;28.90;94736.16;5132834;27;20230;-51
2023/05/01 10:21:39;;;;;;;4.15;2.40;;;;;;;32.20;29.21;94742.03;5132675;27;20204;-51
2023/05/01 10:24:08;;;;;;;2.38;2.17;;;;;;;32.10;29.41;94742.88;5132287;27;20735;-50
2023/05/01 10:26:36;;;;;;;2.22;2.03;;;;;;;32.02;29.07;94738.16;5132436;27;20196;-51
2023/05/01 10:29:03;;;;;;;2.22;2.05;;;;;;;31.87;29.22;94736.38;5132328;27;20238;-51
2023/05/01 10:31:31;;;;;;;2.42;2.22;;;;;;;31.64;29.49;94723.72;5133358;27;20271;-51
2023/05/01 10:33:59;;;;;;;2.17;1.98;;;;;;;31.58;29.58;94732.72;5133210;27;20218;-50
2023/05/01 10:36:33;;;;;;;2.67;2.20;;;;;;;31.30;29.74;94705.81;5133630;27;20693;-50
2023/05/01 10:39:00;;;;;;;4.85;2.13;;;;;;;31.34;29.37;94730.63;5132402;27;20202;-51
2023/05/01 10:42:09;;;;;;;2.53;2.22;;;;;;;31.25;29.83;94734.84;5132425;27;20228;-51
2023/05/01 10:44:37;;;;;;;1.85;1.75;;;;;;;31.12;29.93;94732.75;5109140;28;20300;-51
2023/05/01 10:47:41;;;;;;;2.15;2.03;;;;;;;30.94;29.97;94728.81;5109127;28;20654;-51
2023/05/01 10:50:09;;;;;;;3.25;2.28;;;;;;;30.66;30.21;94732.72;5109414;28;20660;-55
2023/05/01 10:53:06;;;;;;;2.50;2.30;;;;;;;30.44;30.40;94735.56;5109543;28;20627;-52
2023/05/01 10:55:37;;;;;;;2.28;2.15;;;;;;;30.10;30.10;94719.38;5093501;28;20223;-54
2023/05/01 10:58:04;;;;;;;2.88;1.98;;;;;;;30.09;30.80;94729.13;5109923;28;20189;-51
2023/05/01 11:00:33;;;;;;;2.55;2.35;;;;;;;30.01;30.67;94737.56;5109409;28;20231;-51
2023/05/01 11:03:39;;;;;;;2.60;2.38;;;;;;;29.86;30.55;94730.34;5108623;28;20276;-52
2023/05/01 11:06:06;;;;;;;2.65;2.38;;;;;;;29.70;31.16;94731.31;5110779;28;20207;-49
2023/05/01 11:08:35;;;;;;;2.55;2.35;;;;;;;29.54;30.88;94729.66;5111541;28;20287;-53
2023/05/01 11:11:39;;;;;;;2.42;2.22;;;;;;;29.37;31.16;94737.72;5111468;28;20188;-51
2023/05/01 11:14:09;;;;;;;2.90;1.90;;;;;;;29.17;31.32;94733.09;5110655;28;20199;-51
2023/05/01 11:16:45;;;;;;;4.72;2.40;;;;;;;29.06;31.40;94729.63;5111401;28;20189;-52
2023/05/01 11:19:33;;;;;;;2.30;2.10;;;;;;;28.95;31.44;94726.06;5110373;28;20844;-52
2023/05/01 11:22:00;;;;;;;2.85;2.17;;;;;;;28.88;31.36;94722.84;5131086;27;20789;-52
2023/05/01 11:24:33;;;;;;;2.00;1.90;;;;;;;28.91;31.79;94738.13;5131482;27;20260;-50
2023/05/01 11:27:01;;;;;;;4.82;2.40;;;;;;;28.94;31.35;94726.31;5131550;27;20196;-50
2023/05/01 11:29:32;;;;;;;2.28;2.08;;;;;;;28.99;31.24;94735.06;5131530;27;20185;-51
2023/05/01 11:32:00;;;;;;;6.20;2.20;;;;;;;28.91;31.20;94727.59;5131768;27;20180;-50
2023/05/01 11:34:27;;;;;;;3.08;2.08;;;;;;;28.88;31.44;94735.22;5131703;27;20189;-49
2023/05/01 11:36:54;;;;;;;2.67;2.20;;;;;;;28.71;31.72;94732.69;5132133;27;20539;-51
2023/05/01 11:39:21;;;;;;;2.50;2.38;;;;;;;28.50;31.77;94729.91;5131894;27;20188;-51
2023/05/01 11:41:48;;;;;;;1.98;1.88;;;;;;;28.35;32.12;94735.00;5132141;27;20227;-50
2023/05/01 11:44:16;;;;;;;2.20;1.95;;;;;;;28.21;32.11;94739.03;5131011;27;20191;-51